Latest Weather Observations for South Channel Island

IDV60801

Issued at 12:02 am EST Saturday 30 July 2016 (issued every 30 minutes, with the page automatically refreshed every 10 minutes)

About weather observations | Map of weather stations | Latest weather observations for VIC | Other Formats
Station Details ID: 086344 Name: SOUTH CHANNEL ISLAND Lat: -38.31 Lon: 144.80 Height: 9.0 m
Data from the previous 72 hours. | See also: Recent months for locations in Victoria
Date/Time
EST
Temp
°C
App
Temp
°C
Dew
Point
°C
Rel
Hum
%
Delta-T
°C
Wind Press
QNH
hPa
Press
MSL
hPa
Rain since
9am
mm
Dir  Spd
km/h
Gust
km/h
Spd
kts
Gust
kts
30/12:00am - - - - - WNW 20 26 11 14 - - -
 
Date/Time
EST
Temp
°C
App
Temp
°C
Dew
Point
°C
Rel
Hum
%
Delta-T
°C
Wind Press
QNH
hPa
Press
MSL
hPa
Rain since
9am
mm
Dir  Spd
km/h
Gust
km/h
Spd
kts
Gust
kts
29/11:30pm - - - - - WNW 19 20 10 11 - - -
29/11:00pm - - - - - NW 20 26 11 14 - - -
29/10:30pm - - - - - WNW 22 26 12 14 - - -
29/10:00pm - - - - - NW 20 26 11 14 - - -
29/09:30pm - - - - - NW 19 20 10 11 - - -
29/09:00pm - - - - - WNW 28 32 15 17 - - -
29/08:30pm - - - - - WNW 26 30 14 16 - - -
29/08:00pm - - - - - NNW 19 22 10 12 - - -
29/07:30pm - - - - - WNW 20 20 11 11 - - -
29/07:00pm - - - - - WNW 28 30 15 16 - - -
29/06:30pm - - - - - WNW 26 28 14 15 - - -
29/06:00pm - - - - - WNW 22 26 12 14 - - -
29/05:30pm - - - - - W 26 30 14 16 - - -
29/05:00pm - - - - - W 22 24 12 13 - - -
29/04:30pm - - - - - W 15 17 8 9 - - -
29/04:00pm - - - - - SW 15 17 8 9 - - -
29/03:30pm - - - - - SW 20 26 11 14 - - -
29/03:00pm - - - - - WNW 28 30 15 16 - - -
29/02:30pm - - - - - WNW 26 30 14 16 - - -
29/02:00pm - - - - - W 32 37 17 20 - - -
29/01:30pm - - - - - W 30 33 16 18 - - -
29/01:00pm - - - - - WNW 35 41 19 22 - - -
29/12:30pm - - - - - WNW 35 46 19 25 - - -
29/12:00pm - - - - - WNW 39 50 21 27 - - -
29/11:30am - - - - - NW 35 39 19 21 - - -
29/11:00am - - - - - NW 39 46 21 25 - - -
29/10:30am - - - - - NW 41 48 22 26 - - -
29/10:00am - - - - - NW 37 43 20 23 - - -
29/09:30am - - - - - NNW 37 46 20 25 - - -
29/09:00am - - - - - NNW 39 43 21 23 - - -
29/08:30am - - - - - NNW 35 43 19 23 - - -
29/08:00am - - - - - N 32 35 17 19 - - -
29/07:30am - - - - - N 35 39 19 21 - - -
29/07:00am - - - - - N 39 44 21 24 - - -
29/06:30am - - - - - NNW 37 41 20 22 - - -
29/06:00am - - - - - N 33 37 18 20 - - -
29/05:30am - - - - - N 33 39 18 21 - - -
29/05:00am - - - - - NNW 35 39 19 21 - - -
29/04:30am - - - - - NNW 35 39 19 21 - - -
29/04:00am - - - - - NNW 35 39 19 21 - - -
29/03:30am - - - - - NNW 41 48 22 26 - - -
29/03:00am - - - - - NNW 37 43 20 23 - - -
29/02:30am - - - - - NNW 35 41 19 22 - - -
29/02:00am - - - - - NNW 33 39 18 21 - - -
29/01:30am - - - - - NNW 37 43 20 23 - - -
29/01:00am - - - - - NNW 39 48 21 26 - - -
29/12:30am - - - - - NNW 39 52 21 28 - - -
29/12:00am - - - - - N 41 46 22 25 - - -
 
Date/Time
EST
Temp
°C
App
Temp
°C
Dew
Point
°C
Rel
Hum
%
Delta-T
°C
Wind Press
QNH
hPa
Press
MSL
hPa
Rain since
9am
mm
Dir  Spd
km/h
Gust
km/h
Spd
kts
Gust
kts
28/11:30pm - - - - - N 41 48 22 26 - - -
28/11:00pm - - - - - N 41 48 22 26 - - -
28/10:30pm - - - - - NNW 37 44 20 24 - - -
28/10:00pm - - - - - NNW 37 43 20 23 - - -
28/09:30pm - - - - - NNW 33 37 18 20 - - -
28/09:00pm - - - - - NNW 33 39 18 21 - - -
28/08:30pm - - - - - NNW 28 32 15 17 - - -
28/08:00pm - - - - - NNW 26 30 14 16 - - -
28/07:30pm - - - - - NNW 19 28 10 15 - - -
28/07:00pm - - - - - NNW 22 26 12 14 - - -
28/06:30pm - - - - - NNW 26 28 14 15 - - -
28/06:00pm - - - - - NW 28 32 15 17 - - -
28/05:30pm - - - - - NW 28 33 15 18 - - -
28/05:00pm - - - - - WNW 37 41 20 22 - - -
28/04:30pm - - - - - WNW 37 44 20 24 - - -
28/04:00pm - - - - - WNW 32 39 17 21 - - -
28/03:30pm - - - - - WNW 39 50 21 27 - - -
28/03:00pm - - - - - WNW 43 52 23 28 - - -
28/02:30pm - - - - - WNW 41 50 22 27 - - -
28/02:00pm - - - - - WNW 44 57 24 31 - - -
28/01:30pm - - - - - WNW 37 52 20 28 - - -
28/01:00pm - - - - - WNW 33 39 18 21 - - -
28/12:30pm - - - - - WNW 41 54 22 29 - - -
28/12:00pm - - - - - WNW 39 48 21 26 - - -
28/11:30am - - - - - WNW 43 52 23 28 - - -
28/11:00am - - - - - WNW 33 39 18 21 - - -
28/10:30am - - - - - WNW 33 43 18 23 - - -
28/10:00am - - - - - NW 30 35 16 19 - - -
28/09:30am - - - - - NW 32 37 17 20 - - -
28/09:00am - - - - - NW 35 43 19 23 - - -
28/08:30am - - - - - NW 37 43 20 23 - - -
28/08:00am - - - - - WNW 39 46 21 25 - - -
28/07:30am - - - - - NW 39 48 21 26 - - -
28/07:00am - - - - - WNW 39 46 21 25 - - -
28/06:30am - - - - - NW 39 44 21 24 - - -
28/06:00am - - - - - NW 37 48 20 26 - - -
28/05:30am - - - - - WNW 39 50 21 27 - - -
28/05:00am - - - - - WNW 43 52 23 28 - - -
28/04:30am - - - - - WNW 46 59 25 32 - - -
28/04:00am - - - - - WNW 43 50 23 27 - - -
28/03:30am - - - - - WNW 44 52 24 28 - - -
28/03:00am - - - - - WNW 43 54 23 29 - - -
28/02:30am - - - - - WNW 43 52 23 28 - - -
28/02:00am - - - - - WNW 39 48 21 26 - - -
28/01:30am - - - - - WNW 41 48 22 26 - - -
28/01:00am - - - - - WNW 41 48 22 26 - - -
28/12:30am - - - - - WNW 41 50 22 27 - - -
28/12:00am - - - - - WNW 37 44 20 24 - - -
 
Date/Time
EST
Temp
°C
App
Temp
°C
Dew
Point
°C
Rel
Hum
%
Delta-T
°C
Wind Press
QNH
hPa
Press
MSL
hPa
Rain since
9am
mm
Dir  Spd
km/h
Gust
km/h
Spd
kts
Gust
kts
27/11:30pm - - - - - WNW 35 43 19 23 - - -
27/11:00pm - - - - - WNW 37 48 20 26 - - -
27/10:30pm - - - - - WNW 37 46 20 25 - - -
27/10:00pm - - - - - WNW 39 50 21 27 - - -
27/09:30pm - - - - - WNW 41 48 22 26 - - -
27/09:00pm - - - - - WNW 43 54 23 29 - - -
27/08:30pm - - - - - WNW 39 46 21 25 - - -
27/08:00pm - - - - - WNW 43 48 23 26 - - -
27/07:30pm - - - - - WNW 39 48 21 26 - - -
27/07:00pm - - - - - WNW 39 48 21 26 - - -
27/06:30pm - - - - - W 39 46 21 25 - - -
27/06:00pm - - - - - WNW 39 44 21 24 - - -
27/05:30pm - - - - - WNW 35 41 19 22 - - -
27/05:00pm - - - - - W 35 46 19 25 - - -
27/04:30pm - - - - - W 39 48 21 26 - - -
27/04:00pm - - - - - WNW 39 46 21 25 - - -
27/03:30pm - - - - - W 30 39 16 21 - - -
27/03:00pm - - - - - W 33 41 18 22 - - -
27/02:30pm - - - - - W 30 33 16 18 - - -
27/02:00pm - - - - - W 32 39 17 21 - - -
27/01:30pm - - - - - W 30 35 16 19 - - -
27/01:18pm - - - - - W 41 54 22 29 - - -
27/01:00pm - - - - - WSW 46 54 25 29 - - -
27/12:30pm - - - - - WSW 41 52 22 28 - - -
27/12:00pm - - - - - WSW 46 57 25 31 - - -
27/11:44am - - - - - WSW 32 54 17 29 - - -
27/11:30am - - - - - WSW 28 37 15 20 - - -
27/11:07am - - - - - SW 37 59 20 32 - - -
27/11:00am - - - - - SW 32 39 17 21 - - -
27/10:30am - - - - - SW 41 52 22 28 - - -
27/10:00am - - - - - WSW 32 41 17 22 - - -
27/09:38am - - - - - SW 43 63 23 34 - - -
27/09:30am - - - - - SW 35 44 19 24 - - -
27/09:00am - - - - - SW 43 57 23 31 - - -
27/08:39am - - - - - SW 44 63 24 34 - - -
27/08:30am - - - - - SSW 44 57 24 31 - - -
27/08:10am - - - - - SW 43 61 23 33 - - -
27/08:00am - - - - - SSW 44 57 24 31 - - -
27/07:30am - - - - - SSW 44 57 24 31 - - -
27/07:01am - - - - - WSW 35 48 19 26 - - -
27/07:00am - - - - - W 37 48 20 26 - - -
27/06:30am - - - - - WNW 39 48 21 26 - - -
27/06:00am - - - - - WNW 37 44 20 24 - - -
27/05:30am - - - - - WNW 39 46 21 25 - - -
27/05:00am - - - - - WNW 32 39 17 21 - - -
27/04:30am - - - - - NW 33 37 18 20 - - -
27/04:00am - - - - - NNW 30 35 16 19 - - -
27/03:30am - - - - - NNW 32 37 17 20 - - -
27/03:00am - - - - - NNW 35 44 19 24 - - -
27/02:30am - - - - - NNW 37 44 20 24 - - -
27/02:00am - - - - - N 37 41 20 22 - - -
27/01:30am - - - - - N 39 46 21 25 - - -
27/01:00am - - - - - N 43 50 23 27 - - -
27/12:30am - - - - - N 48 54 26 29 - - -

Other Formats:

Comma delimited format used in spreadsheet applications
http://www.bom.gov.au/fwo/IDV60801/IDV60801.94853.axf

JavaScript Object Notation format (JSON) in row-major order
http://www.bom.gov.au/fwo/IDV60801/IDV60801.94853.json